Time;durP1;ratioP1;P1;durP2;ratioP2;P2;SDS_P1;SDS_P2;PMS_P1;PMS_P2;Temp;Humidity;BMP_temperature;BMP_pressure;BME280_temperature;BME280_humidity;BME280_pressure;Samples;Min_cycle;Max_cycle;Signal;HPM_P1;HPM_P2
2022/08/25 00:00:44;;;;;;;4.30;2.92;;;;;;;;;;5060113;28;20033;-67
2022/08/25 00:03:29;;;;;;;5.50;2.78;;;;;;;;;;5061773;28;20035;-69
2022/08/25 00:06:15;;;;;;;6.55;2.70;;;;;;;;;;5059014;28;20092;-68
2022/08/25 00:09:01;;;;;;;5.47;2.95;;;;;;;;;;5057163;28;20471;-67
2022/08/25 00:11:48;;;;;;;4.68;3.22;;;;;;;;;;5066240;28;20036;-64
2022/08/25 00:14:35;;;;;;;5.00;3.35;;;;;;;;;;5067824;28;20086;-89
2022/08/25 00:17:21;;;;;;;3.92;2.90;;;;;;;;;;5058535;28;20024;-86
2022/08/25 00:20:08;;;;;;;4.80;3.05;;;;;;;;;;5057642;28;20052;-86
2022/08/25 00:22:55;;;;;;;4.32;3.08;;;;;;;;;;5075706;28;20443;-87
2022/08/25 00:25:40;;;;;;;3.55;2.75;;;;;;;;;;5063372;28;20124;-88
2022/08/25 00:28:26;;;;;;;3.38;3.00;;;;;;;;;;5051853;28;20076;-70
2022/08/25 00:31:13;;;;;;;4.07;2.90;;;;;;;;;;5064737;28;20032;-69
2022/08/25 00:33:59;;;;;;;4.13;2.88;;;;;;;;;;5056393;28;20506;-69
2022/08/25 00:36:46;;;;;;;4.32;3.40;;;;;;;;;;5061746;28;20013;-69
2022/08/25 00:39:31;;;;;;;3.05;2.42;;;;;;;;;;5071245;28;20056;-69
2022/08/25 00:42:19;;;;;;;4.07;2.95;;;;;;;;;;5067100;28;20167;-69
2022/08/25 00:45:06;;;;;;;2.92;2.30;;;;;;;;;;5057381;28;20095;-70
2022/08/25 00:47:51;;;;;;;5.00;3.17;;;;;;;;;;5065210;28;20059;-65
2022/08/25 00:50:37;;;;;;;5.78;3.33;;;;;;;;;;5070668;28;20024;-84
2022/08/25 00:53:23;;;;;;;3.83;2.67;;;;;;;;;;5060091;28;20380;-84
2022/08/25 00:56:09;;;;;;;2.92;2.42;;;;;;;;;;5067712;28;20297;-86
2022/08/25 00:58:55;;;;;;;5.57;2.80;;;;;;;;;;5056165;28;20373;-83
2022/08/25 01:01:40;;;;;;;3.75;3.10;;;;;;;;;;5068360;28;20035;-84
2022/08/25 01:04:26;;;;;;;3.75;2.75;;;;;;;;;;5059766;28;20112;-69
2022/08/25 01:07:13;;;;;;;5.20;2.72;;;;;;;;;;5064972;28;20024;-71
2022/08/25 01:09:59;;;;;;;5.90;3.58;;;;;;;;;;5063259;28;20051;-63
2022/08/25 01:12:45;;;;;;;4.68;2.65;;;;;;;;;;5079984;28;20090;-62
2022/08/25 01:15:32;;;;;;;3.97;2.83;;;;;;;;;;5072709;28;20070;-63
2022/08/25 01:18:18;;;;;;;5.45;3.00;;;;;;;;;;5073365;28;20070;-64
2022/08/25 01:21:03;;;;;;;2.80;2.40;;;;;;;;;;5066890;28;20028;-63
2022/08/25 01:23:49;;;;;;;5.40;2.90;;;;;;;;;;5053597;28;20029;-63
2022/08/25 01:26:35;;;;;;;5.68;2.97;;;;;;;;;;5065251;28;20020;-69
2022/08/25 01:29:21;;;;;;;4.10;2.90;;;;;;;;;;5064726;28;20438;-69
2022/08/25 01:32:12;;;;;;;4.28;3.20;;;;;;;;;;5067819;28;20107;-70
2022/08/25 01:34:57;;;;;;;5.47;3.10;;;;;;;;;;5063277;28;20051;-69
2022/08/25 01:37:43;;;;;;;5.80;3.20;;;;;;;;;;5063442;28;20017;-69
2022/08/25 01:40:29;;;;;;;5.68;3.22;;;;;;;;;;5059606;28;20562;-69
2022/08/25 01:43:15;;;;;;;3.63;2.90;;;;;;;;;;5061099;28;20119;-81
2022/08/25 01:46:01;;;;;;;4.47;3.17;;;;;;;;;;5067166;28;20035;-67
2022/08/25 01:48:46;;;;;;;5.72;3.15;;;;;;;;;;5067699;28;20043;-68
2022/08/25 01:51:33;;;;;;;6.05;3.15;;;;;;;;;;5065538;28;20045;-69
2022/08/25 01:54:19;;;;;;;4.40;3.15;;;;;;;;;;5059754;28;20036;-68
2022/08/25 01:57:05;;;;;;;4.85;3.42;;;;;;;;;;5064332;28;20440;-67
2022/08/25 01:59:50;;;;;;;4.60;3.38;;;;;;;;;;5054487;28;20131;-64
2022/08/25 02:02:36;;;;;;;3.88;2.97;;;;;;;;;;5062522;28;20025;-82
2022/08/25 02:05:22;;;;;;;5.65;3.03;;;;;;;;;;5062137;28;20124;-84
2022/08/25 02:08:07;;;;;;;4.40;3.40;;;;;;;;;;5062663;28;20291;-83
2022/08/25 02:10:54;;;;;;;3.85;2.85;;;;;;;;;;5066019;28;20124;-84
2022/08/25 02:13:40;;;;;;;4.40;3.20;;;;;;;;;;5055117;28;20032;-81
2022/08/25 02:16:31;;;;;;;5.70;3.05;;;;;;;;;;5054764;28;20035;-83
2022/08/25 02:19:18;;;;;;;3.25;2.85;;;;;;;;;;5061650;28;20070;-69
2022/08/25 02:22:04;;;;;;;4.70;3.30;;;;;;;;;;5064080;28;20470;-70
2022/08/25 02:24:49;;;;;;;4.80;3.35;;;;;;;;;;5081495;28;20391;-70
2022/08/25 02:27:35;;;;;;;3.53;2.95;;;;;;;;;;5083536;28;20395;-68
2022/08/25 02:30:20;;;;;;;4.07;3.22;;;;;;;;;;5086050;28;20024;-69
2022/08/25 02:33:07;;;;;;;4.10;2.90;;;;;;;;;;5077974;28;20115;-69
2022/08/25 02:35:55;;;;;;;3.15;2.28;;;;;;;;;;5073428;28;20031;-69
2022/08/25 02:38:41;;;;;;;3.90;3.08;;;;;;;;;;5084049;28;20487;-83
2022/08/25 02:41:27;;;;;;;4.30;2.90;;;;;;;;;;5071440;28;20389;-66
2022/08/25 02:44:13;;;;;;;4.65;3.55;;;;;;;;;;5068160;28;20103;-63
2022/08/25 02:46:58;;;;;;;4.47;3.38;;;;;;;;;;5084295;28;20016;-62
2022/08/25 02:49:44;;;;;;;6.38;3.50;;;;;;;;;;5079318;28;20020;-62
2022/08/25 02:52:29;;;;;;;5.57;3.10;;;;;;;;;;5050333;28;20067;-64
2022/08/25 02:55:16;;;;;;;5.65;3.55;;;;;;;;;;5075447;28;20032;-70
2022/08/25 02:58:01;;;;;;;4.45;3.58;;;;;;;;;;5073642;28;20103;-69
2022/08/25 03:00:47;;;;;;;5.40;3.40;;;;;;;;;;5080712;28;20020;-69
2022/08/25 03:03:33;;;;;;;4.80;3.50;;;;;;;;;;5085110;28;20318;-69
2022/08/25 03:06:21;;;;;;;4.80;3.30;;;;;;;;;;5085207;28;20517;-68
2022/08/25 03:09:07;;;;;;;6.20;3.70;;;;;;;;;;5066008;28;20016;-69
2022/08/25 03:11:53;;;;;;;4.90;3.00;;;;;;;;;;5088470;28;20036;-69
2022/08/25 03:14:39;;;;;;;5.20;3.30;;;;;;;;;;5077881;28;20118;-63
2022/08/25 03:17:24;;;;;;;5.80;3.55;;;;;;;;;;5086801;28;20346;-69
2022/08/25 03:20:10;;;;;;;4.13;3.38;;;;;;;;;;5088079;28;20032;-68
2022/08/25 03:22:56;;;;;;;3.70;3.08;;;;;;;;;;5082587;28;20378;-68
2022/08/25 03:28:46;;;;;;;4.75;3.50;;;;;;;;;;5084826;28;20495;-68
2022/08/25 03:31:32;;;;;;;4.65;3.55;;;;;;;;;;5083788;28;20032;-84
2022/08/25 03:34:18;;;;;;;6.10;3.75;;;;;;;;;;5078202;28;20071;-71
2022/08/25 03:37:05;;;;;;;6.30;3.80;;;;;;;;;;5077864;28;20415;-68
2022/08/25 03:39:51;;;;;;;4.85;3.17;;;;;;;;;;5086818;28;20035;-69
2022/08/25 03:42:43;;;;;;;4.82;3.55;;;;;;;;;;5082872;28;20032;-68
2022/08/25 03:45:29;;;;;;;5.07;3.85;;;;;;;;;;5075573;28;20024;-69
2022/08/25 03:48:15;;;;;;;4.78;3.60;;;;;;;;;;5073501;28;20017;-69
2022/08/25 03:51:00;;;;;;;6.43;3.40;;;;;;;;;;5071816;28;20177;-69
2022/08/25 03:53:46;;;;;;;3.72;3.20;;;;;;;;;;5080882;28;20392;-68
2022/08/25 03:56:32;;;;;;;4.75;3.50;;;;;;;;;;5084908;28;20021;-69
2022/08/25 03:59:17;;;;;;;5.03;3.47;;;;;;;;;;5063360;28;20029;-68
2022/08/25 04:02:04;;;;;;;5.93;4.03;;;;;;;;;;5089266;28;20058;-69
2022/08/25 04:04:49;;;;;;;7.53;3.55;;;;;;;;;;5073452;28;20031;-68
2022/08/25 04:07:35;;;;;;;5.72;3.65;;;;;;;;;;5080395;28;20464;-69
2022/08/25 04:10:20;;;;;;;6.63;4.30;;;;;;;;;;5081799;28;20095;-66
2022/08/25 04:13:06;;;;;;;4.47;3.53;;;;;;;;;;5081000;28;20033;-67
2022/08/25 04:15:52;;;;;;;4.75;3.58;;;;;;;;;;5082842;28;20048;-67
2022/08/25 04:18:37;;;;;;;7.57;3.78;;;;;;;;;;5084425;28;20037;-67
2022/08/25 04:21:23;;;;;;;6.70;3.70;;;;;;;;;;5073834;28;20111;-66
2022/08/25 04:24:10;;;;;;;6.60;4.20;;;;;;;;;;5086200;28;20043;-68
2022/08/25 04:26:56;;;;;;;4.57;3.55;;;;;;;;;;5090654;28;20036;-68
2022/08/25 04:29:42;;;;;;;7.25;3.85;;;;;;;;;;5082712;28;20067;-62
2022/08/25 04:32:27;;;;;;;5.97;3.80;;;;;;;;;;5080178;28;20537;-69
2022/08/25 04:35:13;;;;;;;6.43;3.30;;;;;;;;;;5084716;28;22169;-68
2022/08/25 04:37:59;;;;;;;6.88;3.97;;;;;;;;;;5091092;28;20028;-68
2022/08/25 04:40:44;;;;;;;6.25;3.60;;;;;;;;;;5086223;28;20043;-67
2022/08/25 04:43:30;;;;;;;6.35;4.57;;;;;;;;;;5093564;28;20028;-67
2022/08/25 04:46:20;;;;;;;5.45;3.60;;;;;;;;;;5091649;28;20099;-68
2022/08/25 04:49:06;;;;;;;4.63;3.65;;;;;;;;;;5090013;28;20042;-69
2022/08/25 04:51:51;;;;;;;5.45;3.75;;;;;;;;;;5087229;28;20048;-70
2022/08/25 04:54:37;;;;;;;6.05;4.05;;;;;;;;;;5088205;28;20024;-69
2022/08/25 04:57:22;;;;;;;4.85;3.90;;;;;;;;;;5085420;28;20020;-69
2022/08/25 05:00:09;;;;;;;6.22;3.53;;;;;;;;;;5073351;28;20034;-68
2022/08/25 05:02:54;;;;;;;5.60;3.58;;;;;;;;;;5092826;28;20072;-68
2022/08/25 05:05:40;;;;;;;6.90;4.45;;;;;;;;;;5088748;28;20115;-66
2022/08/25 05:08:26;;;;;;;7.55;4.80;;;;;;;;;;5092690;28;20115;-68
2022/08/25 05:11:13;;;;;;;5.47;4.15;;;;;;;;;;5080782;28;20080;-68
2022/08/25 05:14:00;;;;;;;6.05;3.85;;;;;;;;;;5088265;28;20035;-68
2022/08/25 05:16:45;;;;;;;6.20;4.05;;;;;;;;;;5071205;28;20024;-67
2022/08/25 05:19:31;;;;;;;5.25;4.15;;;;;;;;;;5090204;28;20032;-68
2022/08/25 05:22:17;;;;;;;5.72;4.10;;;;;;;;;;5088746;28;20137;-69
2022/08/25 05:25:02;;;;;;;6.32;4.25;;;;;;;;;;5091680;28;20070;-63
2022/08/25 05:27:48;;;;;;;4.88;3.80;;;;;;;;;;5087064;28;20024;-61
2022/08/25 05:30:36;;;;;;;6.38;4.13;;;;;;;;;;5088802;28;20441;-61
2022/08/25 05:33:22;;;;;;;6.25;4.32;;;;;;;;;;5080099;28;20593;-61
2022/08/25 05:36:08;;;;;;;6.57;4.10;;;;;;;;;;5087383;28;20016;-61
2022/08/25 05:38:54;;;;;;;8.27;4.57;;;;;;;;;;5082320;28;20035;-61
2022/08/25 05:41:40;;;;;;;6.38;4.32;;;;;;;;;;5081723;28;20478;-66
2022/08/25 05:44:25;;;;;;;5.45;3.95;;;;;;;;;;5087899;28;20032;-65
2022/08/25 05:47:11;;;;;;;5.05;3.90;;;;;;;;;;5082881;28;20360;-67
2022/08/25 05:49:57;;;;;;;6.25;3.92;;;;;;;;;;5073319;28;20036;-66
2022/08/25 05:52:43;;;;;;;5.53;3.60;;;;;;;;;;5090642;28;20135;-67
2022/08/25 05:55:28;;;;;;;5.45;3.20;;;;;;;;;;5059200;28;20028;-66
2022/08/25 05:58:14;;;;;;;6.28;3.72;;;;;;;;;;5085293;28;20028;-68
2022/08/25 06:02:39;;;;;;;6.07;4.20;;;;;;;;;;5077622;28;20481;-69
2022/08/25 06:04:05;;;;;;;9.90;4.50;;;;;;;;;;5073062;28;20027;-69
2022/08/25 06:06:53;;;;;;;9.00;5.10;;;;;;;;;;5081235;28;20023;-70
2022/08/25 06:09:40;;;;;;;5.88;3.42;;;;;;;;;;5078551;28;20024;-69
2022/08/25 06:12:25;;;;;;;7.30;4.38;;;;;;;;;;5075895;28;20028;-69
2022/08/25 06:15:12;;;;;;;6.35;3.83;;;;;;;;;;5078520;28;20030;-68
2022/08/25 06:18:00;;;;;;;5.15;3.83;;;;;;;;;;5080840;28;20017;-68
2022/08/25 06:20:45;;;;;;;8.18;3.45;;;;;;;;;;5080189;28;20028;-75
2022/08/25 06:23:31;;;;;;;5.95;3.40;;;;;;;;;;5067044;28;20025;-72
2022/08/25 06:26:16;;;;;;;5.47;3.38;;;;;;;;;;5081908;28;20028;-70
2022/08/25 06:29:02;;;;;;;6.05;3.40;;;;;;;;;;5079889;28;20603;-70
2022/08/25 06:31:48;;;;;;;4.13;3.25;;;;;;;;;;5082113;28;20059;-72
2022/08/25 06:34:34;;;;;;;5.05;3.65;;;;;;;;;;5077375;28;20038;-71
2022/08/25 06:37:20;;;;;;;5.88;3.28;;;;;;;;;;5077805;28;20024;-68
2022/08/25 06:40:06;;;;;;;5.20;3.83;;;;;;;;;;5081221;28;20109;-71
2022/08/25 06:42:51;;;;;;;5.75;4.07;;;;;;;;;;5076179;28;20020;-72
2022/08/25 06:45:38;;;;;;;6.72;3.58;;;;;;;;;;5075439;28;20028;-74
2022/08/25 06:48:24;;;;;;;7.45;3.85;;;;;;;;;;5080064;28;20053;-72
2022/08/25 06:51:15;;;;;;;8.07;4.10;;;;;;;;;;5074766;28;20035;-71
2022/08/25 06:54:01;;;;;;;5.93;4.00;;;;;;;;;;5079038;28;20081;-68
2022/08/25 06:56:46;;;;;;;5.07;3.53;;;;;;;;;;5078629;28;20047;-68
2022/08/25 06:59:33;;;;;;;4.85;3.60;;;;;;;;;;5080796;28;20543;-67
2022/08/25 07:02:19;;;;;;;5.95;4.30;;;;;;;;;;5067301;28;20028;-68
2022/08/25 07:05:05;;;;;;;5.47;3.60;;;;;;;;;;5076037;28;20055;-71
2022/08/25 07:07:50;;;;;;;6.05;4.00;;;;;;;;;;5079339;28;20270;-70
2022/08/25 07:10:36;;;;;;;6.05;3.85;;;;;;;;;;5064827;28;20113;-69
2022/08/25 07:13:22;;;;;;;6.82;3.97;;;;;;;;;;5078812;28;20086;-70
2022/08/25 07:16:07;;;;;;;6.35;4.00;;;;;;;;;;5079607;28;20033;-72
2022/08/25 07:18:55;;;;;;;7.75;4.13;;;;;;;;;;5066289;28;20028;-72
2022/08/25 07:21:41;;;;;;;6.32;4.45;;;;;;;;;;5077767;28;20020;-69
2022/08/25 07:24:27;;;;;;;6.75;3.97;;;;;;;;;;5064945;28;20039;-71
2022/08/25 07:27:13;;;;;;;8.77;4.25;;;;;;;;;;5077669;28;20431;-72
2022/08/25 07:29:58;;;;;;;6.45;3.78;;;;;;;;;;5080562;28;20047;-71
2022/08/25 07:32:44;;;;;;;8.90;3.95;;;;;;;;;;5077333;28;20463;-73
2022/08/25 07:35:31;;;;;;;5.20;3.85;;;;;;;;;;5064504;28;20386;-68
2022/08/25 07:38:17;;;;;;;5.00;3.97;;;;;;;;;;5075315;28;20390;-70
2022/08/25 07:41:02;;;;;;;6.72;4.68;;;;;;;;;;5076592;28;20023;-69
2022/08/25 07:43:48;;;;;;;7.65;4.30;;;;;;;;;;5080561;28;20544;-66
2022/08/25 07:46:33;;;;;;;7.13;4.07;;;;;;;;;;5062162;28;20056;-66
2022/08/25 07:49:20;;;;;;;5.93;4.05;;;;;;;;;;5065472;28;20041;-65
2022/08/25 07:52:05;;;;;;;7.15;4.53;;;;;;;;;;5064713;28;20044;-74
2022/08/25 07:54:53;;;;;;;6.57;4.35;;;;;;;;;;5079745;28;20066;-68
2022/08/25 07:57:39;;;;;;;5.78;4.32;;;;;;;;;;5078034;28;20342;-69
2022/08/25 08:00:27;;;;;;;10.05;4.70;;;;;;;;;;5079100;28;21557;-70
2022/08/25 08:03:12;;;;;;;9.27;5.57;;;;;;;;;;5079457;28;20043;-76
2022/08/25 08:05:58;;;;;;;9.05;4.82;;;;;;;;;;5078800;28;20036;-69
2022/08/25 08:08:45;;;;;;;11.13;5.20;;;;;;;;;;5086187;28;20021;-66
2022/08/25 08:11:39;;;;;;;8.43;4.82;;;;;;;;;;5060565;28;20028;-68
2022/08/25 08:14:25;;;;;;;7.63;4.82;;;;;;;;;;5080113;28;20021;-67
2022/08/25 08:17:11;;;;;;;8.63;5.00;;;;;;;;;;5083554;28;20031;-67
2022/08/25 08:19:57;;;;;;;8.88;4.18;;;;;;;;;;5081536;28;20051;-67
2022/08/25 08:22:44;;;;;;;6.07;4.50;;;;;;;;;;5072608;28;20108;-64
2022/08/25 08:25:29;;;;;;;8.75;4.60;;;;;;;;;;5084565;28;20043;-65
2022/08/25 08:28:15;;;;;;;6.70;4.47;;;;;;;;;;5074988;28;20369;-70
2022/08/25 08:31:00;;;;;;;7.47;4.85;;;;;;;;;;5074241;28;20472;-64
2022/08/25 08:33:47;;;;;;;6.53;4.10;;;;;;;;;;5086300;28;20081;-61
2022/08/25 08:36:33;;;;;;;7.18;5.00;;;;;;;;;;5080780;28;20100;-61
2022/08/25 08:39:19;;;;;;;6.43;4.13;;;;;;;;;;5074323;28;20124;-63
2022/08/25 08:42:16;;;;;;;6.03;4.28;;;;;;;;;;5073039;28;20020;-61
2022/08/25 08:45:02;;;;;;;5.95;3.78;;;;;;;;;;5067194;28;20479;-68
2022/08/25 08:47:51;;;;;;;7.95;5.10;;;;;;;;;;5073891;28;20031;-61
2022/08/25 08:50:43;;;;;;;5.07;4.00;;;;;;;;;;5076789;28;20062;-63
2022/08/25 08:53:34;;;;;;;5.43;3.72;;;;;;;;;;5058472;28;20052;-62
2022/08/25 08:56:33;;;;;;;6.10;4.43;;;;;;;;;;5058025;28;20086;-62
2022/08/25 08:59:24;;;;;;;7.28;3.67;;;;;;;;;;5057108;28;20479;-59
2022/08/25 09:02:48;;;;;;;5.57;4.57;;;;;;;;;;5080936;28;20391;-60
2022/08/25 09:05:48;;;;;;;6.88;3.85;;;;;;;;;;5023496;28;20029;-70
2022/08/25 09:08:35;;;;;;;6.03;4.10;;;;;;;;;;5020242;28;20113;-72
2022/08/25 09:11:20;;;;;;;5.10;4.07;;;;;;;;;;5072488;28;20060;-75
2022/08/25 09:14:06;;;;;;;5.68;4.22;;;;;;;;;;5069820;28;20530;-71
2022/08/25 09:17:01;;;;;;;5.57;4.00;;;;;;;;;;5084600;28;20054;-74
2022/08/25 09:19:56;;;;;;;6.10;3.95;;;;;;;;;;5082972;28;20494;-74
2022/08/25 09:22:50;;;;;;;5.60;3.78;;;;;;;;;;5087358;28;20026;-65
2022/08/25 09:25:36;;;;;;;5.57;3.97;;;;;;;;;;5064990;28;20025;-65
2022/08/25 09:28:35;;;;;;;4.90;3.95;;;;;;;;;;5079627;28;20024;-65
2022/08/25 09:31:22;;;;;;;5.53;4.10;;;;;;;;;;5077073;28;20027;-65
2022/08/25 09:34:15;;;;;;;5.25;3.75;;;;;;;;;;5061118;28;20123;-62
2022/08/25 09:37:01;;;;;;;5.63;3.80;;;;;;;;;;5073836;28;20025;-65
2022/08/25 09:39:46;;;;;;;3.95;3.40;;;;;;;;;;5066636;28;20021;-72
2022/08/25 09:42:44;;;;;;;5.25;3.75;;;;;;;;;;5071542;28;20458;-68
2022/08/25 09:45:30;;;;;;;;;;;;;;;;;;5076594;28;20061;-62
2022/08/25 09:48:23;;;;;;;5.97;3.80;;;;;;;;;;5080243;28;19953;-60
2022/08/25 09:51:27;;;;;;;4.70;3.25;;;;;;;;;;5075834;28;20058;-62
2022/08/25 09:54:14;;;;;;;5.18;4.50;;;;;;;;;;5073641;28;20410;-61
2022/08/25 09:57:00;;;;;;;5.10;3.50;;;;;;;;;;5080116;28;20046;-61
2022/08/25 09:59:50;;;;;;;4.40;3.80;;;;;;;;;;5083032;28;20051;-74
2022/08/25 10:02:35;;;;;;;4.85;3.55;;;;;;;;;;5051186;28;20033;-70
2022/08/25 10:05:23;;;;;;;6.10;3.90;;;;;;;;;;5081242;28;20017;-74
2022/08/25 10:08:10;;;;;;;5.80;3.72;;;;;;;;;;5081883;28;20020;-76
2022/08/25 10:10:57;;;;;;;6.25;3.67;;;;;;;;;;5078375;28;20016;-74
2022/08/25 10:13:49;;;;;;;3.72;3.30;;;;;;;;;;5081929;28;20495;-76
2022/08/25 10:16:35;;;;;;;3.90;3.35;;;;;;;;;;5074788;28;20467;-69
2022/08/25 10:19:20;;;;;;;4.95;3.72;;;;;;;;;;5088081;28;20073;-71
2022/08/25 10:22:09;;;;;;;4.22;3.40;;;;;;;;;;5084817;28;20024;-60
2022/08/25 10:24:55;;;;;;;4.15;3.45;;;;;;;;;;5079010;28;20115;-62
2022/08/25 10:27:57;;;;;;;4.15;3.50;;;;;;;;;;5073637;28;20024;-62
2022/08/25 10:30:49;;;;;;;5.53;3.22;;;;;;;;;;5065701;28;20027;-59
2022/08/25 10:33:44;;;;;;;7.70;4.85;;;;;;;;;;5072580;28;20112;-59
2022/08/25 10:36:29;;;;;;;17.30;8.35;;;;;;;;;;5082567;28;20218;-70
2022/08/25 10:39:26;;;;;;;10.82;5.68;;;;;;;;;;5062887;28;20021;-70
2022/08/25 10:42:12;;;;;;;9.45;5.10;;;;;;;;;;5071231;28;20013;-69
2022/08/25 10:48:16;;;;;;;10.32;6.20;;;;;;;;;;5071242;28;20360;-70
2022/08/25 10:51:21;;;;;;;10.57;5.75;;;;;;;;;;5076788;28;20467;-69
2022/08/25 10:54:15;;;;;;;6.63;3.70;;;;;;;;;;5078993;28;20063;-60
2022/08/25 10:57:20;;;;;;;11.98;5.03;;;;;;;;;;5080887;28;20020;-59
2022/08/25 11:00:09;;;;;;;7.68;4.10;;;;;;;;;;5075477;28;20032;-60
2022/08/25 11:03:03;;;;;;;5.45;4.03;;;;;;;;;;5072186;28;20119;-64
2022/08/25 11:05:52;;;;;;;6.47;4.60;;;;;;;;;;5071385;28;20016;-59
2022/08/25 11:08:58;;;;;;;6.72;4.28;;;;;;;;;;5069365;28;20463;-60
2022/08/25 11:11:48;;;;;;;6.13;4.22;;;;;;;;;;5055653;28;20032;-76
2022/08/25 11:14:55;;;;;;;7.03;3.90;;;;;;;;;;5070647;28;20037;-71
2022/08/25 11:17:44;;;;;;;4.93;3.28;;;;;;;;;;5081798;28;20013;-60
2022/08/25 11:20:33;;;;;;;5.05;3.15;;;;;;;;;;5089368;28;20023;-60
2022/08/25 11:23:21;;;;;;;3.83;2.78;;;;;;;;;;5056977;28;20119;-59
2022/08/25 11:26:10;;;;;;;3.85;2.95;;;;;;;;;;5060903;28;20081;-60
2022/08/25 11:29:05;;;;;;;4.95;3.08;;;;;;;;;;5072874;28;20383;-59
2022/08/25 11:31:51;;;;;;;4.30;2.50;;;;;;;;;;5076434;28;20115;-63
2022/08/25 11:34:37;;;;;;;4.72;3.30;;;;;;;;;;5073410;28;20545;-62
2022/08/25 11:37:24;;;;;;;4.05;3.03;;;;;;;;;;5067421;28;20383;-61
2022/08/25 11:40:17;;;;;;;6.25;2.78;;;;;;;;;;5076083;28;20059;-62
2022/08/25 11:43:03;;;;;;;5.03;3.20;;;;;;;;;;5072854;28;20020;-62
2022/08/25 11:46:03;;;;;;;3.50;2.40;;;;;;;;;;5074851;28;20505;-61
2022/08/25 11:49:01;;;;;;;5.05;3.28;;;;;;;;;;5075693;28;20028;-72
2022/08/25 11:51:47;;;;;;;4.07;3.08;;;;;;;;;;5072095;28;20159;-60
2022/08/25 11:54:35;;;;;;;3.42;2.80;;;;;;;;;;5091319;28;20390;-60
2022/08/25 11:57:24;;;;;;;6.13;3.95;;;;;;;;;;5064626;28;20098;-59
2022/08/25 12:00:13;;;;;;;3.72;2.85;;;;;;;;;;5070873;28;20027;-62
2022/08/25 12:03:19;;;;;;;3.70;2.95;;;;;;;;;;5078464;28;20063;-60
2022/08/25 12:06:20;;;;;;;4.32;3.17;;;;;;;;;;5073815;28;20028;-59
2022/08/25 12:09:06;;;;;;;3.50;2.80;;;;;;;;;;5079612;28;20024;-68
2022/08/25 12:11:56;;;;;;;3.25;2.90;;;;;;;;;;5078041;28;20479;-65
2022/08/25 12:14:43;;;;;;;4.38;3.13;;;;;;;;;;5077626;28;20027;-66
2022/08/25 12:17:36;;;;;;;4.85;3.22;;;;;;;;;;5081742;28;20059;-65
2022/08/25 12:20:42;;;;;;;6.07;3.30;;;;;;;;;;5084748;28;20170;-67
2022/08/25 12:23:28;;;;;;;4.75;3.42;;;;;;;;;;5076037;28;20025;-68
2022/08/25 12:26:26;;;;;;;4.38;2.90;;;;;;;;;;5082982;28;20024;-69
2022/08/25 12:29:30;;;;;;;3.92;3.08;;;;;;;;;;5065670;28;20107;-62
2022/08/25 12:32:29;;;;;;;4.65;3.42;;;;;;;;;;5078663;28;20028;-61
2022/08/25 12:35:15;;;;;;;;;;;;;;;;;;5081906;28;20150;-59
2022/08/25 12:38:09;;;;;;;4.25;3.08;;;;;;;;;;5082376;28;19908;-59
2022/08/25 12:41:01;;;;;;;4.15;3.20;;;;;;;;;;5077600;28;20099;-60
2022/08/25 12:43:48;;;;;;;4.38;2.90;;;;;;;;;;5074100;28;20060;-67
2022/08/25 12:46:35;;;;;;;4.22;3.10;;;;;;;;;;5082333;28;20380;-66
2022/08/25 12:49:31;;;;;;;4.70;3.20;;;;;;;;;;5072447;28;20047;-59
2022/08/25 12:52:18;;;;;;;4.15;3.42;;;;;;;;;;5084637;28;20396;-59
2022/08/25 12:55:04;;;;;;;4.10;2.58;;;;;;;;;;5072731;28;20064;-60
2022/08/25 12:57:56;;;;;;;4.38;3.28;;;;;;;;;;5072116;28;20050;-64
2022/08/25 13:00:45;;;;;;;5.43;3.05;;;;;;;;;;5072450;28;20028;-62
2022/08/25 13:03:58;;;;;;;4.65;2.72;;;;;;;;;;5073914;28;20016;-67
2022/08/25 13:06:56;;;;;;;4.55;3.08;;;;;;;;;;5076401;28;20024;-70
2022/08/25 13:09:44;;;;;;;5.60;3.00;;;;;;;;;;5082324;28;20371;-67
2022/08/25 13:12:30;;;;;;;4.35;3.20;;;;;;;;;;5080267;28;20028;-69
2022/08/25 13:15:28;;;;;;;4.45;3.25;;;;;;;;;;5079449;28;20494;-71
2022/08/25 13:18:16;;;;;;;3.92;3.03;;;;;;;;;;5087675;28;20156;-72
2022/08/25 13:21:04;;;;;;;4.65;3.10;;;;;;;;;;5102223;28;20021;-61
2022/08/25 13:23:53;;;;;;;4.73;3.10;;;;;;;;;;5072834;28;20062;-70
2022/08/25 13:26:41;;;;;;;4.30;3.10;;;;;;;;;;5071870;28;20519;-67
2022/08/25 13:29:28;;;;;;;4.00;2.50;;;;;;;;;;5075169;28;20024;-71
2022/08/25 13:32:15;;;;;;;3.03;2.60;;;;;;;;;;5080479;28;20399;-69
2022/08/25 13:35:24;;;;;;;3.70;2.90;;;;;;;;;;5078794;28;20030;-69
2022/08/25 13:38:13;;;;;;;3.92;3.33;;;;;;;;;;5093601;28;20359;-70
2022/08/25 13:41:06;;;;;;;5.03;3.00;;;;;;;;;;5073525;28;20028;-68
2022/08/25 13:43:52;;;;;;;3.55;2.78;;;;;;;;;;5073053;28;20032;-61
2022/08/25 13:46:38;;;;;;;3.22;2.40;;;;;;;;;;5081639;28;20055;-62
2022/08/25 13:49:25;;;;;;;4.13;2.80;;;;;;;;;;5066276;28;20074;-62
2022/08/25 13:52:24;;;;;;;6.10;3.15;;;;;;;;;;5079467;28;20047;-62
2022/08/25 13:55:10;;;;;;;2.58;2.38;;;;;;;;;;5092237;28;20032;-60
2022/08/25 13:57:59;;;;;;;3.15;2.50;;;;;;;;;;5078345;28;20069;-71
2022/08/25 14:00:47;;;;;;;5.45;2.80;;;;;;;;;;5076339;28;20024;-60
2022/08/25 14:03:34;;;;;;;7.15;3.40;;;;;;;;;;5091526;28;20023;-60
2022/08/25 14:06:23;;;;;;;4.65;3.03;;;;;;;;;;5085050;28;20238;-60
2022/08/25 14:09:16;;;;;;;2.92;2.33;;;;;;;;;;5079778;28;20225;-61
2022/08/25 14:12:02;;;;;;;4.00;2.85;;;;;;;;;;5080854;28;20118;-60
2022/08/25 14:14:56;;;;;;;4.80;3.15;;;;;;;;;;5069742;28;20067;-60
2022/08/25 14:17:43;;;;;;;3.30;2.63;;;;;;;;;;5081315;28;20046;-67
2022/08/25 14:20:29;;;;;;;7.80;3.38;;;;;;;;;;5070057;28;20045;-72
2022/08/25 14:23:19;;;;;;;3.13;2.60;;;;;;;;;;5079182;28;20027;-74
2022/08/25 14:26:05;;;;;;;3.50;2.85;;;;;;;;;;5085575;28;20032;-73
2022/08/25 14:28:51;;;;;;;3.83;2.70;;;;;;;;;;5075997;28;20020;-68
2022/08/25 14:31:39;;;;;;;3.42;3.05;;;;;;;;;;5080812;28;20028;-75
2022/08/25 14:34:26;;;;;;;6.03;2.70;;;;;;;;;;5074675;28;20070;-61
2022/08/25 14:37:13;;;;;;;4.50;3.00;;;;;;;;;;5080300;28;20020;-75
2022/08/25 14:39:59;;;;;;;5.03;3.42;;;;;;;;;;5072725;28;20020;-69
2022/08/25 14:42:46;;;;;;;4.75;2.60;;;;;;;;;;5072974;28;20039;-68
2022/08/25 14:45:33;;;;;;;5.18;2.78;;;;;;;;;;5062845;28;20047;-69
2022/08/25 14:48:23;;;;;;;3.53;2.58;;;;;;;;;;5063182;28;20515;-67
2022/08/25 14:51:10;;;;;;;3.90;2.40;;;;;;;;;;5077510;28;20031;-69
2022/08/25 14:53:58;;;;;;;3.70;2.53;;;;;;;;;;5076494;28;20048;-75
2022/08/25 14:56:45;;;;;;;3.08;2.38;;;;;;;;;;5054342;28;20023;-78
2022/08/25 14:59:31;;;;;;;3.65;2.50;;;;;;;;;;5042114;28;20048;-78
2022/08/25 15:02:18;;;;;;;5.65;2.80;;;;;;;;;;5087219;28;20093;-77
2022/08/25 15:05:07;;;;;;;4.32;3.00;;;;;;;;;;5060910;28;20027;-78
2022/08/25 15:10:57;;;;;;;3.33;2.50;;;;;;;;;;5071409;28;20487;-74
2022/08/25 15:13:44;;;;;;;3.72;2.55;;;;;;;;;;5080826;28;20469;-76
2022/08/25 15:16:31;;;;;;;3.10;2.60;;;;;;;;;;5077062;28;20020;-74
2022/08/25 15:19:18;;;;;;;6.93;2.33;;;;;;;;;;5076844;28;20056;-74
2022/08/25 15:22:03;;;;;;;4.75;2.53;;;;;;;;;;5087632;28;20047;-73
2022/08/25 15:24:49;;;;;;;4.85;3.45;;;;;;;;;;5070893;28;20056;-74
2022/08/25 15:27:35;;;;;;;5.15;3.03;;;;;;;;;;5068910;28;20089;-74
2022/08/25 15:30:21;;;;;;;4.43;2.88;;;;;;;;;;5061254;28;20016;-79
2022/08/25 15:33:07;;;;;;;4.65;3.20;;;;;;;;;;5082532;28;20094;-76
2022/08/25 15:35:52;;;;;;;3.45;2.63;;;;;;;;;;5062227;28;20016;-76
2022/08/25 15:38:39;;;;;;;5.55;3.10;;;;;;;;;;5079790;28;20016;-76
2022/08/25 15:41:24;;;;;;;5.72;3.00;;;;;;;;;;5057791;28;20468;-77
2022/08/25 15:44:10;;;;;;;5.00;2.42;;;;;;;;;;5060078;28;20464;-76
2022/08/25 15:46:57;;;;;;;5.38;2.78;;;;;;;;;;5063170;28;20055;-76
2022/08/25 15:49:43;;;;;;;3.65;2.97;;;;;;;;;;5049135;28;20028;-79
2022/08/25 15:52:28;;;;;;;5.40;3.38;;;;;;;;;;5078968;28;20138;-76
2022/08/25 15:55:15;;;;;;;4.45;3.05;;;;;;;;;;5063053;28;20077;-77
2022/08/25 15:58:00;;;;;;;4.78;2.90;;;;;;;;;;5070577;28;20027;-77
2022/08/25 16:00:46;;;;;;;5.32;2.83;;;;;;;;;;5060114;28;20025;-77
2022/08/25 16:03:32;;;;;;;4.90;3.20;;;;;;;;;;5077778;28;20502;-77
2022/08/25 16:06:17;;;;;;;4.50;2.55;;;;;;;;;;5054783;28;20050;-75
2022/08/25 16:09:04;;;;;;;4.85;3.17;;;;;;;;;;5057003;28;20058;-73
2022/08/25 16:11:50;;;;;;;3.80;2.75;;;;;;;;;;5075507;28;20039;-74
2022/08/25 16:14:36;;;;;;;4.60;2.78;;;;;;;;;;5086125;28;20040;-73
2022/08/25 16:17:22;;;;;;;4.53;3.05;;;;;;;;;;5088908;28;20052;-73
2022/08/25 16:20:08;;;;;;;3.38;2.58;;;;;;;;;;5088873;28;20033;-74
2022/08/25 16:22:53;;;;;;;6.93;3.83;;;;;;;;;;5091299;28;20082;-73
2022/08/25 16:25:40;;;;;;;8.85;3.92;;;;;;;;;;5076753;28;20179;-67
2022/08/25 16:28:26;;;;;;;7.25;4.72;;;;;;;;;;5081211;28;20016;-72
2022/08/25 16:31:13;;;;;;;8.18;5.55;;;;;;;;;;5088365;28;20027;-73
2022/08/25 16:34:00;;;;;;;7.75;4.68;;;;;;;;;;5062322;28;20153;-73
2022/08/25 16:36:46;;;;;;;9.02;6.25;;;;;;;;;;5062128;28;20552;-71
2022/08/25 16:39:31;;;;;;;7.03;5.57;;;;;;;;;;5075667;28;20033;-73
2022/08/25 16:42:17;;;;;;;9.05;5.57;;;;;;;;;;5083447;28;20027;-73
2022/08/25 16:45:03;;;;;;;10.40;5.43;;;;;;;;;;5083016;28;20039;-73
2022/08/25 16:47:48;;;;;;;9.50;5.38;;;;;;;;;;5061209;28;20021;-69
2022/08/25 16:50:37;;;;;;;7.32;4.80;;;;;;;;;;5086348;28;20103;-67
2022/08/25 16:56:27;;;;;;;7.90;4.30;;;;;;;;;;5081973;28;20016;-67
2022/08/25 16:59:13;;;;;;;7.90;4.18;;;;;;;;;;5083558;28;20024;-67